Time;durP1;ratioP1;P1;durP2;ratioP2;P2;SDS_P1;SDS_P2;PMS_P1;PMS_P2;Temp;Humidity;BMP_temperature;BMP_pressure;BME280_temperature;BME280_humidity;BME280_pressure;Samples;Min_cycle;Max_cycle;Signal;HPM_P1;HPM_P2
2022/07/10 00:01:15;;;;;;;11.18;1.50;;;15.60;99.90;;;;;;4994459;28;20030;-78
2022/07/10 00:03:44;;;;;;;7.80;1.52;;;15.60;99.90;;;;;;4989908;28;20030;-77
2022/07/10 00:06:09;;;;;;;5.38;0.88;;;15.60;99.90;;;;;;5001092;28;20077;-77
2022/07/10 00:08:35;;;;;;;9.07;1.30;;;15.60;99.90;;;;;;4997287;28;20038;-78
2022/07/10 00:11:01;;;;;;;6.43;1.27;;;15.60;99.90;;;;;;4996465;28;20069;-77
2022/07/10 00:13:29;;;;;;;4.38;1.00;;;15.60;99.90;;;;;;4996233;28;20465;-77
2022/07/10 00:15:55;;;;;;;8.43;1.30;;;15.60;99.90;;;;;;4990344;28;20042;-77
2022/07/10 00:18:20;;;;;;;6.78;1.30;;;15.60;99.90;;;;;;4992834;28;20030;-79
2022/07/10 00:20:46;;;;;;;7.18;1.10;;;15.50;99.90;;;;;;4998721;28;20475;-77
2022/07/10 00:23:12;;;;;;;10.55;2.33;;;15.60;99.90;;;;;;4992982;28;20037;-78
2022/07/10 00:25:37;;;;;;;5.45;1.30;;;15.60;99.90;;;;;;4980585;28;20093;-78
2022/07/10 00:28:04;;;;;;;9.50;1.38;;;15.60;99.90;;;;;;4995513;28;20023;-77
2022/07/10 00:30:30;;;;;;;9.43;1.33;;;15.60;99.90;;;;;;4994826;28;20022;-77
2022/07/10 00:32:55;;;;;;;5.03;1.83;;;15.60;99.90;;;;;;4992539;28;20034;-78
2022/07/10 00:35:21;;;;;;;8.27;1.52;;;15.50;99.90;;;;;;4991918;28;20046;-77
2022/07/10 00:37:47;;;;;;;7.25;1.13;;;15.50;99.90;;;;;;4999183;28;20022;-77
2022/07/10 00:40:12;;;;;;;4.53;0.93;;;15.50;99.90;;;;;;4978644;28;20024;-77
2022/07/10 00:42:38;;;;;;;10.07;1.17;;;15.50;99.90;;;;;;4993451;28;20027;-76
2022/07/10 00:45:05;;;;;;;3.95;1.00;;;15.50;99.90;;;;;;4996204;28;20502;-79
2022/07/10 00:47:30;;;;;;;5.70;1.38;;;15.50;99.90;;;;;;4976393;28;20058;-78
2022/07/10 00:49:56;;;;;;;7.63;1.20;;;15.40;99.90;;;;;;4995354;28;20050;-78
2022/07/10 00:52:22;;;;;;;7.95;1.15;;;15.40;99.90;;;;;;4996912;28;20541;-76
2022/07/10 00:54:51;;;;;;;3.72;0.90;;;15.30;99.90;;;;;;4994433;28;20985;-78
2022/07/10 00:57:18;;;;;;;4.30;1.10;;;15.30;99.90;;;;;;4998667;28;20054;-77
2022/07/10 00:59:48;;;;;;;5.88;1.20;;;15.20;99.90;;;;;;4995980;28;20057;-77
2022/07/10 01:02:15;;;;;;;6.97;1.20;;;15.30;99.90;;;;;;4992007;28;20104;-77
2022/07/10 01:04:41;;;;;;;6.72;1.50;;;15.20;99.90;;;;;;4977958;28;20613;-77
2022/07/10 01:07:07;;;;;;;7.72;1.45;;;15.20;99.90;;;;;;4981614;28;20030;-77
2022/07/10 01:09:34;;;;;;;7.72;1.00;;;15.30;99.90;;;;;;4976255;28;20034;-78
2022/07/10 01:12:01;;;;;;;9.13;1.10;;;15.30;99.90;;;;;;4992016;28;20073;-77
2022/07/10 01:14:30;;;;;;;5.50;0.90;;;15.20;99.90;;;;;;4978040;28;20022;-77
2022/07/10 01:17:03;;;;;;;7.15;1.10;;;15.20;99.90;;;;;;4993643;28;20481;-77
2022/07/10 01:19:29;;;;;;;9.52;1.15;;;15.30;99.90;;;;;;4994296;28;20029;-77
2022/07/10 01:21:54;;;;;;;7.50;1.40;;;15.30;99.90;;;;;;4996079;28;20032;-76
2022/07/10 01:24:20;;;;;;;6.95;1.15;;;15.20;99.90;;;;;;4992291;28;20022;-77
2022/07/10 01:26:46;;;;;;;7.85;1.30;;;15.20;99.90;;;;;;4993620;28;20030;-77
2022/07/10 01:29:12;;;;;;;2.30;0.88;;;15.20;99.90;;;;;;4981418;28;20049;-77
2022/07/10 01:31:39;;;;;;;6.82;1.13;;;15.20;99.90;;;;;;4997829;28;20030;-76
2022/07/10 01:34:08;;;;;;;3.55;0.75;;;15.20;99.90;;;;;;4996559;28;20065;-77
2022/07/10 01:36:33;;;;;;;7.57;1.60;;;15.20;99.90;;;;;;4994585;28;20176;-77
2022/07/10 01:38:59;;;;;;;3.28;1.05;;;15.10;99.90;;;;;;4978120;28;20429;-77
2022/07/10 01:41:26;;;;;;;3.70;1.40;;;15.10;99.90;;;;;;4981277;28;20108;-77
2022/07/10 01:43:53;;;;;;;7.38;1.77;;;15.10;99.90;;;;;;4996965;28;21520;-77
2022/07/10 01:46:18;;;;;;;4.30;1.05;;;15.10;99.90;;;;;;4993506;28;20085;-77
2022/07/10 01:48:44;;;;;;;6.40;1.38;;;15.10;99.90;;;;;;4994765;28;20030;-76
2022/07/10 01:51:12;;;;;;;7.10;1.30;;;15.10;99.90;;;;;;4996369;28;20101;-77
2022/07/10 01:53:38;;;;;;;4.82;0.93;;;15.10;99.90;;;;;;4992613;28;20036;-77
2022/07/10 01:56:10;;;;;;;8.40;1.38;;;15.10;99.90;;;;;;4995682;28;20501;-78
2022/07/10 01:58:36;;;;;;;5.95;1.30;;;15.00;99.90;;;;;;4997795;28;20035;-77
2022/07/10 02:01:03;;;;;;;6.68;1.13;;;15.00;99.90;;;;;;4996786;28;20101;-78
2022/07/10 02:06:14;;;;;;;6.35;1.17;;;15.10;99.90;;;;;;4994901;28;20264;-78
2022/07/10 02:08:39;;;;;;;3.60;0.85;;;15.10;99.90;;;;;;4999592;28;20018;-77
2022/07/10 02:11:05;;;;;;;6.85;1.23;;;15.10;99.90;;;;;;4996288;28;20109;-77
2022/07/10 02:13:31;;;;;;;8.40;1.00;;;15.10;99.90;;;;;;4997130;28;20026;-77
2022/07/10 02:15:58;;;;;;;6.28;0.90;;;15.10;99.90;;;;;;4996381;28;20038;-77
2022/07/10 02:18:24;;;;;;;5.35;1.00;;;15.10;99.90;;;;;;4994413;28;20038;-77
2022/07/10 02:20:51;;;;;;;8.20;1.55;;;15.10;99.90;;;;;;4994687;28;20026;-77
2022/07/10 02:23:17;;;;;;;7.35;1.05;;;15.10;99.90;;;;;;4993790;28;20112;-78
2022/07/10 02:25:43;;;;;;;6.50;1.00;;;15.10;99.90;;;;;;4993541;28;20526;-78
2022/07/10 02:28:09;;;;;;;6.65;1.98;;;15.10;99.90;;;;;;4997734;28;20030;-77
2022/07/10 02:30:34;;;;;;;4.60;0.95;;;15.10;99.90;;;;;;4988773;28;20613;-78
2022/07/10 02:33:00;;;;;;;5.97;1.20;;;15.10;99.90;;;;;;4993583;28;20031;-77
2022/07/10 02:35:26;;;;;;;7.80;1.83;;;15.10;99.90;;;;;;4991569;28;20022;-76
2022/07/10 02:37:52;;;;;;;6.72;1.05;;;15.10;99.90;;;;;;4972884;28;20025;-78
2022/07/10 02:40:17;;;;;;;7.55;1.73;;;15.10;99.90;;;;;;4993026;28;20034;-77
2022/07/10 02:42:43;;;;;;;7.63;1.55;;;15.00;99.90;;;;;;4992955;28;20023;-77
2022/07/10 02:45:09;;;;;;;13.48;1.48;;;15.00;99.90;;;;;;4979300;28;20058;-76
2022/07/10 02:47:34;;;;;;;8.02;1.63;;;15.00;99.90;;;;;;4991699;28;20036;-77
2022/07/10 02:50:00;;;;;;;9.07;1.58;;;14.90;99.90;;;;;;4998535;28;20021;-77
2022/07/10 02:52:26;;;;;;;7.18;1.35;;;15.00;99.90;;;;;;5001828;28;20022;-77
2022/07/10 02:54:52;;;;;;;4.20;1.20;;;14.90;99.90;;;;;;4995428;28;20144;-76
2022/07/10 02:57:18;;;;;;;7.80;1.23;;;15.00;99.90;;;;;;4978803;28;20022;-76
2022/07/10 02:59:44;;;;;;;6.10;1.65;;;15.00;99.90;;;;;;4999138;28;20029;-76
2022/07/10 03:02:10;;;;;;;11.02;1.60;;;15.00;99.90;;;;;;4996333;28;20461;-76
2022/07/10 03:04:35;;;;;;;6.93;1.15;;;15.00;99.90;;;;;;5000519;28;20477;-76
2022/07/10 03:07:01;;;;;;;10.20;2.03;;;15.00;99.90;;;;;;4980246;28;20030;-76
2022/07/10 03:09:27;;;;;;;8.50;1.80;;;15.00;99.90;;;;;;4994969;28;20077;-78
2022/07/10 03:11:53;;;;;;;8.93;1.67;;;15.10;99.90;;;;;;4992327;28;20034;-77
2022/07/10 03:14:18;;;;;;;11.52;1.67;;;15.10;99.90;;;;;;4994442;28;20092;-77
2022/07/10 03:16:44;;;;;;;7.05;1.60;;;15.10;99.90;;;;;;4990438;28;20034;-77
2022/07/10 03:19:10;;;;;;;6.75;1.92;;;15.10;99.90;;;;;;4976188;28;20544;-77
2022/07/10 03:21:36;;;;;;;7.32;1.45;;;15.00;99.90;;;;;;4978504;28;20026;-79
2022/07/10 03:24:01;;;;;;;10.88;2.15;;;15.00;99.90;;;;;;4977459;28;20581;-78
2022/07/10 03:26:29;;;;;;;8.65;1.77;;;15.10;99.90;;;;;;4998858;28;20039;-77
2022/07/10 03:28:55;;;;;;;7.30;1.65;;;15.10;99.90;;;;;;5012805;28;20433;-77
2022/07/10 03:31:21;;;;;;;11.68;2.30;;;15.10;99.90;;;;;;4997126;28;20029;-78
2022/07/10 03:33:47;;;;;;;10.00;2.05;;;15.10;99.90;;;;;;4994207;28;20029;-78
2022/07/10 03:36:15;;;;;;;14.50;2.55;;;15.10;99.90;;;;;;4992272;28;20086;-78
2022/07/10 03:38:41;;;;;;;9.82;2.33;;;15.10;99.90;;;;;;4994906;28;20112;-77
2022/07/10 03:41:06;;;;;;;9.13;2.25;;;15.10;99.90;;;;;;4996867;28;20133;-77
2022/07/10 03:43:32;;;;;;;8.32;1.88;;;15.10;99.90;;;;;;4998446;28;20065;-77
2022/07/10 03:45:58;;;;;;;9.65;1.77;;;15.10;99.90;;;;;;4990902;28;20121;-78
2022/07/10 03:48:24;;;;;;;9.48;2.45;;;15.10;99.90;;;;;;4996317;28;20120;-77
2022/07/10 03:50:53;;;;;;;9.98;1.98;;;15.10;99.90;;;;;;4968170;28;20117;-76
2022/07/10 03:53:19;;;;;;;13.98;2.53;;;15.10;99.90;;;;;;4997859;28;20501;-77
2022/07/10 03:55:45;;;;;;;9.68;2.08;;;15.10;99.90;;;;;;4991984;28;20033;-78
2022/07/10 03:58:11;;;;;;;7.45;1.80;;;15.10;99.90;;;;;;4995481;28;20026;-76
2022/07/10 04:00:38;;;;;;;7.15;2.17;;;15.10;99.90;;;;;;4990170;28;20042;-77
2022/07/10 04:03:07;;;;;;;13.60;2.35;;;15.10;99.90;;;;;;4991834;28;20041;-77
2022/07/10 04:05:34;;;;;;;11.30;2.28;;;15.10;99.90;;;;;;4973146;28;20061;-77
2022/07/10 04:08:01;;;;;;;12.77;2.35;;;15.10;99.90;;;;;;4997864;28;20023;-77
2022/07/10 04:10:28;;;;;;;11.02;2.35;;;15.10;99.90;;;;;;4985499;28;20125;-77
2022/07/10 04:12:54;;;;;;;13.63;2.53;;;15.10;99.90;;;;;;4991265;28;20022;-77
2022/07/10 04:15:21;;;;;;;10.95;2.22;;;15.00;99.90;;;;;;4992376;28;20089;-76
2022/07/10 04:17:49;;;;;;;9.85;2.22;;;15.00;99.90;;;;;;4976994;28;20034;-77
2022/07/10 04:20:15;;;;;;;16.05;3.10;;;15.00;99.90;;;;;;4992620;28;20022;-76
2022/07/10 04:22:41;;;;;;;11.02;2.25;;;15.00;99.90;;;;;;5012408;28;20015;-76
2022/07/10 04:25:07;;;;;;;9.13;2.30;;;15.00;99.90;;;;;;5007568;28;20062;-76
2022/07/10 04:27:33;;;;;;;12.13;2.10;;;15.00;99.90;;;;;;5011527;28;20057;-77
2022/07/10 04:29:58;;;;;;;9.63;2.30;;;15.00;99.90;;;;;;5011487;28;20037;-77
2022/07/10 04:32:24;;;;;;;12.15;2.67;;;15.00;99.90;;;;;;4979505;28;20022;-77
2022/07/10 04:34:50;;;;;;;12.93;2.60;;;15.00;99.90;;;;;;4973858;28;20137;-78
2022/07/10 04:37:16;;;;;;;13.77;2.70;;;15.00;99.90;;;;;;4992071;28;20058;-77
2022/07/10 04:39:42;;;;;;;10.82;2.13;;;15.00;99.90;;;;;;4995025;28;20505;-77
2022/07/10 04:42:08;;;;;;;11.40;2.50;;;14.90;99.90;;;;;;4995561;28;20046;-77
2022/07/10 04:44:36;;;;;;;20.45;3.42;;;15.00;99.90;;;;;;4993470;28;20049;-77
2022/07/10 04:47:02;;;;;;;14.25;3.63;;;15.00;99.90;;;;;;4982483;28;20050;-77
2022/07/10 04:49:28;;;;;;;15.30;3.08;;;15.00;99.90;;;;;;4986380;28;20019;-77
2022/07/10 04:51:56;;;;;;;12.23;2.95;;;15.00;99.90;;;;;;4994211;28;20026;-77
2022/07/10 04:54:22;;;;;;;14.18;2.60;;;15.00;99.90;;;;;;4990561;28;20033;-76
2022/07/10 04:56:48;;;;;;;11.55;2.60;;;15.10;99.90;;;;;;4990763;28;20034;-76
2022/07/10 04:59:14;;;;;;;20.52;3.25;;;15.10;99.90;;;;;;4987909;28;20518;-77
2022/07/10 05:01:40;;;;;;;13.98;2.65;;;15.20;99.90;;;;;;4974984;28;20037;-78
2022/07/10 05:04:06;;;;;;;13.55;2.58;;;15.20;99.90;;;;;;4992296;28;20187;-77
2022/07/10 05:06:32;;;;;;;17.52;3.80;;;15.10;99.90;;;;;;4985016;28;20124;-77
2022/07/10 05:08:57;;;;;;;14.13;3.08;;;15.10;99.90;;;;;;4989866;28;20112;-78
2022/07/10 05:11:23;;;;;;;12.43;3.25;;;15.10;99.90;;;;;;4991828;28;20601;-77
2022/07/10 05:13:49;;;;;;;17.02;2.63;;;15.10;99.90;;;;;;4985432;28;20029;-77
2022/07/10 05:16:15;;;;;;;9.18;2.90;;;15.00;99.90;;;;;;4990074;28;20112;-77
2022/07/10 05:18:41;;;;;;;20.73;3.50;;;15.00;99.90;;;;;;4988013;28;20084;-77
2022/07/10 05:21:08;;;;;;;13.18;3.17;;;15.00;99.90;;;;;;4971317;28;20034;-77
2022/07/10 05:23:34;;;;;;;12.82;2.78;;;15.00;99.90;;;;;;4988741;28;20058;-78
2022/07/10 05:26:00;;;;;;;17.27;2.65;;;15.00;99.90;;;;;;4990155;28;20033;-77
2022/07/10 05:28:26;;;;;;;15.60;2.88;;;15.00;99.90;;;;;;4986646;28;20030;-77
2022/07/10 05:30:52;;;;;;;15.45;2.95;;;15.10;99.90;;;;;;4984570;28;20053;-77
2022/07/10 05:33:18;;;;;;;17.02;3.63;;;15.20;99.90;;;;;;4994023;28;20026;-76
2022/07/10 05:35:44;;;;;;;12.20;3.25;;;15.30;99.90;;;;;;4969632;28;20037;-77
2022/07/10 05:38:10;;;;;;;15.43;3.33;;;15.30;99.90;;;;;;4978959;28;20100;-77
2022/07/10 05:40:35;;;;;;;12.40;2.65;;;15.20;99.90;;;;;;4971327;28;20514;-78
2022/07/10 05:43:01;;;;;;;10.45;2.70;;;15.20;99.90;;;;;;4991171;28;20387;-77
2022/07/10 05:45:27;;;;;;;13.18;2.88;;;15.30;99.90;;;;;;4995191;28;20406;-78
2022/07/10 05:47:53;;;;;;;17.88;3.67;;;15.20;99.90;;;;;;4974972;28;20033;-77
2022/07/10 05:50:19;;;;;;;10.35;2.75;;;15.20;99.90;;;;;;4990427;28;20481;-77
2022/07/10 05:52:44;;;;;;;14.73;3.03;;;15.20;99.90;;;;;;4971304;28;20022;-77
2022/07/10 05:55:10;;;;;;;12.07;2.75;;;15.30;99.90;;;;;;4988168;28;20038;-77
2022/07/10 05:57:37;;;;;;;8.40;1.90;;;15.30;99.90;;;;;;4987201;28;20093;-78
2022/07/10 06:00:09;;;;;;;17.50;2.83;;;15.90;99.90;;;;;;4993788;28;20034;-77
2022/07/10 06:02:34;;;;;;;19.75;2.90;;;16.50;99.90;;;;;;4997969;28;20054;-78
2022/07/10 06:05:00;;;;;;;9.82;2.60;;;16.20;99.90;;;;;;4988114;28;20089;-74
2022/07/10 06:07:27;;;;;;;16.58;3.17;;;16.00;99.90;;;;;;4991614;28;20561;-73
2022/07/10 06:09:55;;;;;;;14.65;3.03;;;15.90;99.90;;;;;;4990311;28;20049;-74
2022/07/10 06:12:20;;;;;;;15.80;2.90;;;15.90;99.90;;;;;;4988848;28;20088;-73
2022/07/10 06:14:46;;;;;;;20.40;2.95;;;15.80;99.90;;;;;;4990019;28;20034;-74
2022/07/10 06:17:12;;;;;;;9.82;2.63;;;15.80;99.90;;;;;;4982417;28;20608;-73
2022/07/10 06:19:37;;;;;;;12.57;3.00;;;15.90;99.90;;;;;;4987556;28;20076;-73
2022/07/10 06:24:47;;;;;;;16.73;3.38;;;15.90;99.90;;;;;;4995460;28;20392;-73
2022/07/10 06:27:13;;;;;;;12.50;2.95;;;15.90;99.90;;;;;;4993137;28;20037;-73
2022/07/10 06:29:39;;;;;;;13.18;2.88;;;15.90;99.90;;;;;;4998341;28;20105;-73
2022/07/10 06:32:05;;;;;;;12.48;2.53;;;15.80;99.90;;;;;;4999095;28;20025;-72
2022/07/10 06:34:31;;;;;;;13.68;2.90;;;15.90;99.90;;;;;;4996248;28;20536;-73
2022/07/10 06:36:56;;;;;;;13.05;3.03;;;15.90;99.90;;;;;;4992521;28;20064;-74
2022/07/10 06:39:22;;;;;;;12.85;2.95;;;15.90;99.90;;;;;;4974002;28;20495;-72
2022/07/10 06:41:48;;;;;;;15.05;2.95;;;15.80;99.90;;;;;;4997712;28;20421;-73
2022/07/10 06:44:13;;;;;;;14.20;2.75;;;15.70;99.90;;;;;;4997109;28;20480;-75
2022/07/10 06:46:39;;;;;;;13.55;2.45;;;15.60;99.90;;;;;;4996767;28;20033;-74
2022/07/10 06:49:05;;;;;;;12.05;2.35;;;15.70;99.90;;;;;;4994607;28;20419;-73
2022/07/10 06:51:31;;;;;;;12.00;2.45;;;15.70;99.90;;;;;;4989943;28;20110;-74
2022/07/10 06:53:57;;;;;;;17.55;2.92;;;15.70;99.90;;;;;;4996989;28;20030;-73
2022/07/10 06:56:23;;;;;;;16.83;3.00;;;15.80;99.90;;;;;;4996689;28;20086;-73
2022/07/10 06:58:49;;;;;;;12.07;2.78;;;15.90;99.90;;;;;;4993498;28;20507;-73
2022/07/10 07:01:14;;;;;;;16.25;2.63;;;16.00;99.90;;;;;;4993482;28;20058;-73
2022/07/10 07:03:40;;;;;;;13.93;3.33;;;16.00;99.90;;;;;;4989724;28;20022;-73
2022/07/10 07:06:06;;;;;;;18.67;2.65;;;16.00;99.90;;;;;;4995399;28;20406;-74
2022/07/10 07:08:32;;;;;;;14.82;2.10;;;16.00;99.90;;;;;;4989743;28;20718;-73
2022/07/10 07:10:58;;;;;;;14.07;2.67;;;16.10;99.90;;;;;;5002279;28;20029;-74
2022/07/10 07:13:23;;;;;;;14.18;2.35;;;16.00;99.90;;;;;;4992764;28;20030;-73
2022/07/10 07:15:59;;;;;;;12.65;3.00;;;16.10;99.90;;;;;;4995132;28;20027;-73
2022/07/10 07:18:32;;;;;;;13.52;2.28;;;16.10;99.90;;;;;;5001349;28;20022;-73
2022/07/10 07:23:46;;;;;;;12.25;2.47;;;16.30;99.90;;;;;;4993170;28;20566;-77
2022/07/10 07:26:12;;;;;;;15.38;2.75;;;16.30;99.90;;;;;;4994617;28;20057;-77
2022/07/10 07:28:37;;;;;;;16.15;2.70;;;16.40;99.90;;;;;;4995523;28;20034;-77
2022/07/10 07:31:03;;;;;;;15.18;2.50;;;16.50;99.90;;;;;;4997134;28;20068;-77
2022/07/10 07:33:29;;;;;;;15.27;2.50;;;16.50;99.90;;;;;;4993812;28;20509;-76
2022/07/10 07:35:55;;;;;;;14.73;2.25;;;16.50;99.90;;;;;;4994849;28;20030;-78
2022/07/10 07:38:21;;;;;;;11.27;2.28;;;16.60;99.90;;;;;;4996754;28;20027;-77
2022/07/10 07:40:46;;;;;;;18.42;3.25;;;16.60;99.90;;;;;;5000434;28;20022;-78
2022/07/10 07:43:12;;;;;;;15.63;2.60;;;16.70;99.90;;;;;;4991902;28;20388;-73
2022/07/10 07:45:38;;;;;;;11.52;2.00;;;16.70;99.90;;;;;;4973111;28;20037;-75
2022/07/10 07:48:04;;;;;;;14.50;2.03;;;16.70;99.20;;;;;;4998335;28;20049;-74
2022/07/10 07:50:32;;;;;;;9.32;1.83;;;16.70;99.00;;;;;;4993144;28;20042;-74
2022/07/10 07:53:00;;;;;;;10.85;1.80;;;16.70;99.30;;;;;;4994171;28;20030;-75
2022/07/10 07:55:27;;;;;;;14.90;2.08;;;16.60;99.00;;;;;;4991885;28;20050;-73
2022/07/10 07:57:55;;;;;;;18.85;2.63;;;16.60;99.00;;;;;;4993620;28;20919;-73
2022/07/10 08:00:22;;;;;;;9.68;2.03;;;16.60;98.60;;;;;;4997407;28;20041;-73
2022/07/10 08:02:49;;;;;;;10.50;1.92;;;16.70;98.40;;;;;;5005396;28;20806;-75
2022/07/10 08:05:15;;;;;;;11.02;1.85;;;16.80;98.50;;;;;;5006033;28;20038;-76
2022/07/10 08:07:43;;;;;;;10.85;2.45;;;17.10;97.70;;;;;;4993272;28;20066;-74
2022/07/10 08:10:14;;;;;;;13.43;1.65;;;17.30;97.70;;;;;;4996826;28;20018;-72
2022/07/10 08:12:42;;;;;;;11.40;2.22;;;17.40;97.60;;;;;;4977887;28;20026;-72
2022/07/10 08:15:10;;;;;;;12.18;2.55;;;17.30;98.00;;;;;;4993841;28;20041;-72
2022/07/10 08:17:36;;;;;;;13.15;1.95;;;17.10;98.20;;;;;;4991783;28;20034;-72
2022/07/10 08:20:04;;;;;;;13.80;2.67;;;17.00;98.40;;;;;;4991070;28;20117;-73
2022/07/10 08:22:29;;;;;;;15.35;2.47;;;17.00;98.50;;;;;;4988169;28;20030;-78
2022/07/10 08:24:56;;;;;;;9.68;2.42;;;17.00;98.90;;;;;;4989569;28;20034;-82
2022/07/10 08:27:22;;;;;;;9.60;1.80;;;17.00;98.70;;;;;;5000363;28;20402;-80
2022/07/10 08:29:48;;;;;;;10.27;2.08;;;17.00;98.50;;;;;;4998963;28;20524;-82
2022/07/10 08:32:15;;;;;;;13.25;1.92;;;16.90;98.60;;;;;;4995430;28;20121;-81
2022/07/10 08:34:40;;;;;;;9.55;1.90;;;16.90;98.30;;;;;;4998099;28;20029;-80
2022/07/10 08:37:06;;;;;;;13.70;2.28;;;16.90;98.80;;;;;;4980440;28;20038;-81
2022/07/10 08:39:33;;;;;;;8.93;1.48;;;17.00;98.00;;;;;;4998662;28;20057;-76
2022/07/10 08:41:59;;;;;;;8.60;2.13;;;17.10;97.00;;;;;;4992270;28;20035;-76
2022/07/10 08:44:27;;;;;;;13.70;2.58;;;17.20;97.10;;;;;;4975158;28;20034;-77
2022/07/10 08:46:53;;;;;;;11.70;2.03;;;17.40;97.20;;;;;;4970080;28;20035;-77
2022/07/10 08:49:23;;;;;;;9.60;2.20;;;17.50;97.50;;;;;;4987581;28;20045;-77
2022/07/10 08:52:22;;;;;;;12.57;2.17;;;17.60;97.60;;;;;;4973460;28;20034;-77
2022/07/10 08:54:48;;;;;;;11.20;1.95;;;17.60;97.50;;;;;;4993504;28;20052;-78
2022/07/10 08:57:17;;;;;;;13.15;3.53;;;17.70;97.80;;;;;;4977031;28;20096;-76
2022/07/10 08:59:43;;;;;;;15.52;2.30;;;17.60;98.50;;;;;;4993796;28;20501;-77
2022/07/10 09:02:08;;;;;;;15.65;2.17;;;17.60;98.60;;;;;;4981436;28;20065;-76
2022/07/10 09:04:34;;;;;;;9.75;2.03;;;17.60;97.90;;;;;;4997772;28;20080;-77
2022/07/10 09:07:00;;;;;;;9.98;2.13;;;17.70;97.90;;;;;;4991791;28;20057;-78
2022/07/10 09:09:26;;;;;;;10.75;1.85;;;17.70;96.60;;;;;;4998467;28;20053;-77
2022/07/10 09:11:58;;;;;;;11.10;1.77;;;17.70;96.50;;;;;;4996237;28;20032;-76
2022/07/10 09:14:27;;;;;;;10.13;2.10;;;17.60;95.60;;;;;;4994857;28;20113;-77
2022/07/10 09:16:53;;;;;;;11.80;2.08;;;17.60;95.60;;;;;;4992249;28;20379;-77
2022/07/10 09:19:21;;;;;;;11.40;1.85;;;17.70;95.60;;;;;;4999764;28;20026;-77
2022/07/10 09:21:48;;;;;;;10.73;1.77;;;17.70;95.30;;;;;;4998306;28;20082;-77
2022/07/10 09:24:19;;;;;;;12.75;1.73;;;17.60;96.10;;;;;;4997384;28;20065;-75
2022/07/10 09:27:03;;;;;;;11.80;1.83;;;17.70;95.40;;;;;;4998911;28;20631;-76
2022/07/10 09:29:30;;;;;;;8.00;2.08;;;17.80;94.80;;;;;;4996446;28;20351;-77
2022/07/10 09:31:57;;;;;;;9.65;2.22;;;17.70;95.00;;;;;;4997740;28;20093;-77
2022/07/10 09:36:04;;;;;;;10.95;1.60;;;17.80;95.30;;;;;;4996392;28;20125;-75
2022/07/10 09:37:39;;;;;;;8.10;1.60;;;18.00;93.10;;;;;;4999539;28;20026;-76
2022/07/10 09:40:07;;;;;;;8.82;1.67;;;17.90;91.70;;;;;;5014795;28;20026;-77
2022/07/10 09:42:34;;;;;;;7.47;1.60;;;17.90;91.80;;;;;;4996803;28;20081;-76
2022/07/10 09:45:13;;;;;;;10.90;1.90;;;17.80;92.20;;;;;;4990984;28;20036;-75
2022/07/10 09:47:40;;;;;;;9.13;1.60;;;17.90;91.90;;;;;;4978511;28;20025;-74
2022/07/10 09:50:19;;;;;;;9.75;1.23;;;17.90;92.60;;;;;;4995670;28;20620;-74
2022/07/10 09:52:46;;;;;;;6.05;1.42;;;18.00;92.30;;;;;;4996451;28;20045;-75
2022/07/10 09:55:13;;;;;;;10.38;1.95;;;18.10;92.60;;;;;;4979351;28;20065;-76
2022/07/10 09:57:42;;;;;;;10.27;1.92;;;18.20;92.60;;;;;;4998480;28;20038;-75
2022/07/10 10:00:08;;;;;;;7.53;1.77;;;18.10;92.70;;;;;;4993091;28;20038;-75
2022/07/10 10:02:35;;;;;;;7.45;1.65;;;18.10;91.70;;;;;;4997951;28;20499;-76
2022/07/10 10:05:03;;;;;;;7.25;1.13;;;18.10;92.00;;;;;;4989213;28;20034;-75
2022/07/10 10:07:29;;;;;;;7.53;1.80;;;18.10;92.20;;;;;;4994344;28;20042;-75
2022/07/10 10:09:58;;;;;;;9.80;1.80;;;18.30;92.50;;;;;;4989388;28;20029;-76
2022/07/10 10:12:29;;;;;;;10.63;1.73;;;18.50;91.40;;;;;;4994346;28;20490;-76
2022/07/10 10:14:57;;;;;;;8.38;1.60;;;18.50;91.20;;;;;;4992755;28;20034;-75
2022/07/10 10:17:26;;;;;;;7.53;1.67;;;18.40;91.80;;;;;;4997759;28;20026;-76
2022/07/10 10:22:45;;;;;;;5.40;1.45;;;18.50;90.50;;;;;;4996341;28;20038;-76
2022/07/10 10:25:13;;;;;;;9.50;1.50;;;18.60;90.00;;;;;;4995657;28;20053;-76
2022/07/10 10:27:40;;;;;;;7.43;1.40;;;18.60;90.50;;;;;;4995332;28;20477;-76
2022/07/10 10:30:06;;;;;;;9.35;1.67;;;18.60;90.50;;;;;;4998909;28;20026;-74
2022/07/10 10:32:32;;;;;;;5.50;1.55;;;18.90;90.50;;;;;;4995591;28;20030;-76
2022/07/10 10:35:00;;;;;;;7.80;1.20;;;19.00;86.10;;;;;;4996074;28;20084;-75
2022/07/10 10:37:44;;;;;;;8.48;1.52;;;19.00;86.60;;;;;;4994271;28;20129;-77
2022/07/10 10:40:30;;;;;;;4.18;1.20;;;19.10;86.10;;;;;;4995622;28;20084;-74
2022/07/10 10:42:55;;;;;;;17.17;1.88;;;19.10;90.10;;;;;;5004435;28;20034;-73
2022/07/10 10:45:34;;;;;;;8.68;1.88;;;19.20;88.80;;;;;;5001392;28;20065;-74
2022/07/10 10:48:10;;;;;;;7.25;1.40;;;19.10;86.00;;;;;;5007362;28;20080;-73
2022/07/10 10:50:42;;;;;;;4.43;1.35;;;19.00;87.20;;;;;;5002323;28;20030;-71
2022/07/10 10:53:15;;;;;;;7.68;1.60;;;18.90;86.30;;;;;;5000999;28;20160;-72
2022/07/10 10:55:59;;;;;;;5.65;1.42;;;18.90;89.40;;;;;;4995890;28;20037;-73
2022/07/10 10:58:26;;;;;;;7.18;1.35;;;19.10;85.30;;;;;;4995844;28;20025;-72
2022/07/10 11:00:52;;;;;;;8.00;1.52;;;19.00;85.10;;;;;;4978668;28;20058;-72
2022/07/10 11:03:20;;;;;;;6.13;1.30;;;19.00;83.40;;;;;;4995592;28;20537;-73
2022/07/10 11:05:47;;;;;;;5.45;1.20;;;19.00;81.20;;;;;;4989846;28;20030;-73
2022/07/10 11:08:13;;;;;;;3.72;1.13;;;19.10;80.50;;;;;;4994319;28;20040;-72
2022/07/10 11:10:42;;;;;;;6.75;1.33;;;19.30;81.30;;;;;;4994595;28;20501;-73
2022/07/10 11:13:18;;;;;;;7.82;1.25;;;19.40;82.10;;;;;;4997439;28;20026;-73
2022/07/10 11:15:47;;;;;;;5.38;1.75;;;19.60;80.80;;;;;;4995898;28;20454;-71
2022/07/10 11:18:22;;;;;;;4.25;1.20;;;19.60;79.50;;;;;;4995145;28;20045;-71
2022/07/10 11:20:53;;;;;;;8.40;1.92;;;19.60;78.90;;;;;;4999771;28;20040;-72
2022/07/10 11:23:52;;;;;;;7.25;1.52;;;19.80;80.20;;;;;;5001446;28;20030;-71
2022/07/10 11:26:21;;;;;;;6.90;1.20;;;20.30;79.80;;;;;;4996396;28;20112;-72
2022/07/10 11:28:49;;;;;;;6.30;1.55;;;20.50;81.20;;;;;;5001260;28;20092;-73
2022/07/10 11:31:16;;;;;;;5.45;1.73;;;22.00;76.50;;;;;;4999367;28;20027;-71
2022/07/10 11:33:44;;;;;;;6.50;1.55;;;23.60;71.40;;;;;;4991791;28;20018;-72
2022/07/10 11:36:15;;;;;;;5.80;1.38;;;23.90;64.80;;;;;;4998090;28;20026;-71
2022/07/10 11:38:42;;;;;;;7.43;1.30;;;23.30;64.00;;;;;;5000367;28;20049;-77
2022/07/10 11:41:21;;;;;;;7.75;1.70;;;23.80;64.90;;;;;;4994993;28;20121;-75
2022/07/10 11:43:58;;;;;;;5.47;1.40;;;23.80;62.90;;;;;;4996331;28;20026;-76
2022/07/10 11:46:34;;;;;;;5.32;1.10;;;23.00;63.70;;;;;;4998300;28;20502;-75
2022/07/10 11:49:05;;;;;;;7.00;1.30;;;22.40;65.20;;;;;;5002096;28;20037;-76
2022/07/10 11:51:34;;;;;;;;;;;23.40;61.10;;;;;;5001444;28;20495;-75
2022/07/10 11:54:19;;;;;;;6.50;1.45;;;22.80;62.10;;;;;;4996842;28;19925;-73
2022/07/10 11:56:51;;;;;;;12.85;1.40;;;22.50;62.90;;;;;;4994614;28;20086;-74
2022/07/10 11:59:19;;;;;;;8.20;1.20;;;22.70;62.80;;;;;;4997456;28;20026;-75
2022/07/10 12:01:49;;;;;;;8.25;1.80;;;23.20;61.50;;;;;;4997055;28;20037;-74
2022/07/10 12:04:24;;;;;;;6.57;1.55;;;23.10;60.40;;;;;;4996403;28;20113;-76
2022/07/10 12:06:51;;;;;;;7.95;1.63;;;22.80;61.60;;;;;;4997063;28;20026;-79
2022/07/10 12:09:19;;;;;;;7.97;1.30;;;23.00;62.00;;;;;;4999018;28;20046;-77
2022/07/10 12:12:04;;;;;;;5.15;1.40;;;23.30;62.50;;;;;;4995680;28;20089;-77
2022/07/10 12:14:31;;;;;;;8.65;1.65;;;24.00;59.60;;;;;;4990920;28;20406;-77
2022/07/10 12:16:58;;;;;;;6.78;1.33;;;23.60;60.00;;;;;;4998166;28;20061;-74
2022/07/10 12:19:30;;;;;;;9.23;1.98;;;23.00;61.30;;;;;;4992259;28;20034;-75
2022/07/10 12:21:58;;;;;;;7.68;1.50;;;22.80;64.20;;;;;;4991874;28;20040;-76
2022/07/10 12:24:24;;;;;;;6.63;1.42;;;23.30;60.90;;;;;;4989736;28;20093;-74
2022/07/10 12:26:52;;;;;;;5.45;1.40;;;22.50;62.50;;;;;;4995206;28;20030;-75
2022/07/10 12:29:28;;;;;;;7.78;1.40;;;22.00;63.80;;;;;;4999240;28;20028;-76
2022/07/10 12:31:56;;;;;;;7.68;1.35;;;21.60;65.40;;;;;;4994131;28;20036;-76
2022/07/10 12:34:39;;;;;;;9.15;1.83;;;21.20;68.20;;;;;;4984634;28;20023;-77
2022/07/10 12:37:10;;;;;;;7.35;1.60;;;22.00;67.50;;;;;;4996421;28;20030;-76
2022/07/10 12:39:38;;;;;;;17.58;1.88;;;22.20;67.00;;;;;;4993159;28;20030;-77
2022/07/10 12:42:06;;;;;;;8.60;1.65;;;22.70;65.40;;;;;;4989208;28;20069;-77
2022/07/10 12:44:39;;;;;;;9.25;1.90;;;23.10;63.10;;;;;;4992294;28;20031;-76
2022/07/10 12:47:13;;;;;;;11.00;1.55;;;23.00;63.20;;;;;;4993680;28;20490;-77
2022/07/10 12:49:56;;;;;;;5.93;1.50;;;22.50;64.70;;;;;;4988478;28;20064;-77
2022/07/10 12:52:36;;;;;;;9.40;2.50;;;22.10;66.60;;;;;;4989909;28;20072;-76
2022/07/10 12:55:14;;;;;;;9.75;1.80;;;22.90;64.30;;;;;;4987883;28;20053;-76
2022/07/10 12:57:50;;;;;;;8.35;1.60;;;22.60;62.90;;;;;;5011278;28;20766;-78